sensor_id;sensor_type;location;lat;lon;timestamp;P1;durP1;ratioP1;P2;durP2;ratioP2
46457;SDS011;32155;54.076;12.092;2023-04-15T00:01:27;94.10;;;48.60;;
46457;SDS011;32155;54.076;12.092;2023-04-15T00:03:54;99.53;;;50.65;;
46457;SDS011;32155;54.076;12.092;2023-04-15T00:06:20;101.88;;;50.13;;
46457;SDS011;32155;54.076;12.092;2023-04-15T00:08:46;95.22;;;48.67;;
46457;SDS011;32155;54.076;12.092;2023-04-15T00:11:13;100.15;;;48.90;;
46457;SDS011;32155;54.076;12.092;2023-04-15T00:13:39;106.07;;;52.65;;
46457;SDS011;32155;54.076;12.092;2023-04-15T00:16:05;94.28;;;48.35;;
46457;SDS011;32155;54.076;12.092;2023-04-15T00:18:33;92.63;;;49.05;;
46457;SDS011;32155;54.076;12.092;2023-04-15T00:20:59;92.32;;;47.47;;
46457;SDS011;32155;54.076;12.092;2023-04-15T00:23:27;84.90;;;44.03;;
46457;SDS011;32155;54.076;12.092;2023-04-15T00:25:54;86.25;;;44.78;;
46457;SDS011;32155;54.076;12.092;2023-04-15T00:28:23;86.70;;;44.10;;
46457;SDS011;32155;54.076;12.092;2023-04-15T00:30:49;92.47;;;44.38;;
46457;SDS011;32155;54.076;12.092;2023-04-15T00:33:15;83.07;;;42.00;;
46457;SDS011;32155;54.076;12.092;2023-04-15T00:35:41;80.78;;;43.45;;
46457;SDS011;32155;54.076;12.092;2023-04-15T00:38:09;85.68;;;42.88;;
46457;SDS011;32155;54.076;12.092;2023-04-15T00:40:35;86.32;;;42.72;;
46457;SDS011;32155;54.076;12.092;2023-04-15T00:43:06;89.07;;;43.30;;
46457;SDS011;32155;54.076;12.092;2023-04-15T00:45:32;89.10;;;43.00;;
46457;SDS011;32155;54.076;12.092;2023-04-15T00:47:58;90.82;;;44.05;;
46457;SDS011;32155;54.076;12.092;2023-04-15T00:50:24;86.63;;;43.47;;
46457;SDS011;32155;54.076;12.092;2023-04-15T00:52:52;89.40;;;43.15;;
46457;SDS011;32155;54.076;12.092;2023-04-15T00:55:20;88.57;;;44.00;;
46457;SDS011;32155;54.076;12.092;2023-04-15T00:57:46;92.78;;;43.25;;
46457;SDS011;32155;54.076;12.092;2023-04-15T01:00:12;111.10;;;45.17;;
46457;SDS011;32155;54.076;12.092;2023-04-15T01:02:40;98.10;;;45.15;;
46457;SDS011;32155;54.076;12.092;2023-04-15T01:05:06;99.55;;;45.03;;
46457;SDS011;32155;54.076;12.092;2023-04-15T01:07:32;103.32;;;45.67;;
46457;SDS011;32155;54.076;12.092;2023-04-15T01:10:01;99.70;;;45.15;;
46457;SDS011;32155;54.076;12.092;2023-04-15T01:12:28;98.95;;;43.75;;
46457;SDS011;32155;54.076;12.092;2023-04-15T01:14:56;101.47;;;46.33;;
46457;SDS011;32155;54.076;12.092;2023-04-15T01:17:24;102.28;;;46.75;;
46457;SDS011;32155;54.076;12.092;2023-04-15T01:19:52;101.32;;;48.85;;
46457;SDS011;32155;54.076;12.092;2023-04-15T01:22:22;94.82;;;45.47;;
46457;SDS011;32155;54.076;12.092;2023-04-15T01:25:08;97.60;;;44.78;;
46457;SDS011;32155;54.076;12.092;2023-04-15T01:27:39;95.85;;;45.22;;
46457;SDS011;32155;54.076;12.092;2023-04-15T01:30:06;97.07;;;47.10;;
46457;SDS011;32155;54.076;12.092;2023-04-15T01:32:32;98.45;;;46.97;;
46457;SDS011;32155;54.076;12.092;2023-04-15T01:35:01;100.32;;;48.42;;
46457;SDS011;32155;54.076;12.092;2023-04-15T01:37:26;99.05;;;46.60;;
46457;SDS011;32155;54.076;12.092;2023-04-15T01:39:53;97.75;;;46.10;;
46457;SDS011;32155;54.076;12.092;2023-04-15T01:42:20;86.80;;;43.42;;
46457;SDS011;32155;54.076;12.092;2023-04-15T01:44:46;91.90;;;45.35;;
46457;SDS011;32155;54.076;12.092;2023-04-15T01:47:12;91.10;;;44.47;;
46457;SDS011;32155;54.076;12.092;2023-04-15T01:49:38;90.80;;;43.25;;
46457;SDS011;32155;54.076;12.092;2023-04-15T01:52:03;88.85;;;43.55;;
46457;SDS011;32155;54.076;12.092;2023-04-15T01:54:29;91.50;;;44.10;;
46457;SDS011;32155;54.076;12.092;2023-04-15T01:56:56;90.72;;;43.22;;
46457;SDS011;32155;54.076;12.092;2023-04-15T01:59:22;87.40;;;43.65;;
46457;SDS011;32155;54.076;12.092;2023-04-15T02:01:47;98.07;;;45.38;;
46457;SDS011;32155;54.076;12.092;2023-04-15T02:04:13;102.18;;;42.50;;
46457;SDS011;32155;54.076;12.092;2023-04-15T02:06:42;98.50;;;44.90;;
46457;SDS011;32155;54.076;12.092;2023-04-15T02:09:08;97.35;;;45.38;;
46457;SDS011;32155;54.076;12.092;2023-04-15T02:11:34;96.35;;;45.25;;
46457;SDS011;32155;54.076;12.092;2023-04-15T02:14:01;112.63;;;47.40;;
46457;SDS011;32155;54.076;12.092;2023-04-15T02:16:28;93.30;;;45.00;;
46457;SDS011;32155;54.076;12.092;2023-04-15T02:18:54;97.75;;;46.22;;
46457;SDS011;32155;54.076;12.092;2023-04-15T02:21:20;93.43;;;45.20;;
46457;SDS011;32155;54.076;12.092;2023-04-15T02:23:46;97.82;;;45.80;;
46457;SDS011;32155;54.076;12.092;2023-04-15T02:26:12;92.35;;;45.45;;
46457;SDS011;32155;54.076;12.092;2023-04-15T02:28:38;112.25;;;48.90;;
46457;SDS011;32155;54.076;12.092;2023-04-15T02:31:04;115.22;;;47.33;;
46457;SDS011;32155;54.076;12.092;2023-04-15T02:33:30;101.57;;;46.75;;
46457;SDS011;32155;54.076;12.092;2023-04-15T02:35:56;104.22;;;47.60;;
46457;SDS011;32155;54.076;12.092;2023-04-15T02:38:23;97.40;;;48.50;;
46457;SDS011;32155;54.076;12.092;2023-04-15T02:40:49;111.15;;;48.58;;
46457;SDS011;32155;54.076;12.092;2023-04-15T02:43:15;102.57;;;49.38;;
46457;SDS011;32155;54.076;12.092;2023-04-15T02:45:41;93.93;;;47.92;;
46457;SDS011;32155;54.076;12.092;2023-04-15T02:48:07;97.65;;;49.00;;
46457;SDS011;32155;54.076;12.092;2023-04-15T02:50:33;97.40;;;46.90;;
46457;SDS011;32155;54.076;12.092;2023-04-15T02:52:59;103.18;;;49.90;;
46457;SDS011;32155;54.076;12.092;2023-04-15T02:55:26;92.32;;;48.25;;
46457;SDS011;32155;54.076;12.092;2023-04-15T02:57:52;103.68;;;50.22;;
46457;SDS011;32155;54.076;12.092;2023-04-15T03:00:22;93.25;;;48.63;;
46457;SDS011;32155;54.076;12.092;2023-04-15T03:02:49;100.57;;;48.63;;
46457;SDS011;32155;54.076;12.092;2023-04-15T03:05:20;101.90;;;49.58;;
46457;SDS011;32155;54.076;12.092;2023-04-15T03:07:51;87.97;;;45.47;;
46457;SDS011;32155;54.076;12.092;2023-04-15T03:10:17;91.78;;;48.42;;
46457;SDS011;32155;54.076;12.092;2023-04-15T03:12:44;101.43;;;50.13;;
46457;SDS011;32155;54.076;12.092;2023-04-15T03:15:10;96.30;;;49.15;;
46457;SDS011;32155;54.076;12.092;2023-04-15T03:17:36;97.00;;;49.00;;
46457;SDS011;32155;54.076;12.092;2023-04-15T03:20:05;95.03;;;49.75;;
46457;SDS011;32155;54.076;12.092;2023-04-15T03:22:31;91.30;;;48.45;;
46457;SDS011;32155;54.076;12.092;2023-04-15T03:24:57;95.40;;;49.63;;
46457;SDS011;32155;54.076;12.092;2023-04-15T03:27:23;97.18;;;49.05;;
46457;SDS011;32155;54.076;12.092;2023-04-15T03:29:51;86.65;;;49.05;;
46457;SDS011;32155;54.076;12.092;2023-04-15T03:32:17;92.28;;;49.65;;
46457;SDS011;32155;54.076;12.092;2023-04-15T03:34:42;96.13;;;50.22;;
46457;SDS011;32155;54.076;12.092;2023-04-15T03:37:08;89.55;;;48.83;;
46457;SDS011;32155;54.076;12.092;2023-04-15T03:39:36;87.40;;;47.80;;
46457;SDS011;32155;54.076;12.092;2023-04-15T03:42:02;90.75;;;48.58;;
46457;SDS011;32155;54.076;12.092;2023-04-15T03:44:30;88.88;;;49.53;;
46457;SDS011;32155;54.076;12.092;2023-04-15T03:46:56;87.72;;;48.58;;
46457;SDS011;32155;54.076;12.092;2023-04-15T03:49:22;95.35;;;49.90;;
46457;SDS011;32155;54.076;12.092;2023-04-15T03:51:50;87.63;;;48.22;;
46457;SDS011;32155;54.076;12.092;2023-04-15T03:54:15;86.93;;;48.85;;
46457;SDS011;32155;54.076;12.092;2023-04-15T03:56:43;90.55;;;48.67;;
46457;SDS011;32155;54.076;12.092;2023-04-15T03:59:09;82.35;;;47.10;;
46457;SDS011;32155;54.076;12.092;2023-04-15T04:01:35;85.38;;;48.13;;
46457;SDS011;32155;54.076;12.092;2023-04-15T04:04:01;89.35;;;48.22;;
46457;SDS011;32155;54.076;12.092;2023-04-15T04:06:26;86.20;;;48.47;;
46457;SDS011;32155;54.076;12.092;2023-04-15T04:08:52;83.03;;;46.38;;
46457;SDS011;32155;54.076;12.092;2023-04-15T04:11:20;82.05;;;45.08;;
46457;SDS011;32155;54.076;12.092;2023-04-15T04:13:46;91.35;;;48.50;;
46457;SDS011;32155;54.076;12.092;2023-04-15T04:16:11;88.57;;;47.83;;
46457;SDS011;32155;54.076;12.092;2023-04-15T04:18:39;80.60;;;47.75;;
46457;SDS011;32155;54.076;12.092;2023-04-15T04:21:05;85.05;;;47.85;;
46457;SDS011;32155;54.076;12.092;2023-04-15T04:23:31;86.45;;;47.20;;
46457;SDS011;32155;54.076;12.092;2023-04-15T04:25:57;81.25;;;47.30;;
46457;SDS011;32155;54.076;12.092;2023-04-15T04:28:23;85.60;;;48.90;;
46457;SDS011;32155;54.076;12.092;2023-04-15T04:30:48;87.28;;;47.00;;
46457;SDS011;32155;54.076;12.092;2023-04-15T04:33:16;99.43;;;49.08;;
46457;SDS011;32155;54.076;12.092;2023-04-15T04:35:41;81.35;;;46.70;;
46457;SDS011;32155;54.076;12.092;2023-04-15T04:38:07;82.57;;;46.88;;
46457;SDS011;32155;54.076;12.092;2023-04-15T04:40:35;83.55;;;46.58;;
46457;SDS011;32155;54.076;12.092;2023-04-15T04:43:01;86.30;;;46.50;;
46457;SDS011;32155;54.076;12.092;2023-04-15T04:45:27;87.30;;;46.60;;
46457;SDS011;32155;54.076;12.092;2023-04-15T04:47:52;72.90;;;42.85;;
46457;SDS011;32155;54.076;12.092;2023-04-15T04:50:18;81.32;;;45.50;;
46457;SDS011;32155;54.076;12.092;2023-04-15T04:52:46;79.47;;;45.50;;
46457;SDS011;32155;54.076;12.092;2023-04-15T04:55:14;85.30;;;43.67;;
46457;SDS011;32155;54.076;12.092;2023-04-15T04:57:39;78.07;;;43.83;;
46457;SDS011;32155;54.076;12.092;2023-04-15T05:00:06;78.40;;;44.03;;
46457;SDS011;32155;54.076;12.092;2023-04-15T05:02:33;77.80;;;44.65;;
46457;SDS011;32155;54.076;12.092;2023-04-15T05:05:01;73.53;;;42.92;;
46457;SDS011;32155;54.076;12.092;2023-04-15T05:07:26;73.13;;;42.80;;
46457;SDS011;32155;54.076;12.092;2023-04-15T05:09:52;76.15;;;43.67;;
46457;SDS011;32155;54.076;12.092;2023-04-15T05:12:18;73.35;;;42.72;;
46457;SDS011;32155;54.076;12.092;2023-04-15T05:14:51;68.63;;;40.38;;
46457;SDS011;32155;54.076;12.092;2023-04-15T05:17:16;71.70;;;41.20;;
46457;SDS011;32155;54.076;12.092;2023-04-15T05:19:42;67.32;;;41.75;;
46457;SDS011;32155;54.076;12.092;2023-04-15T05:22:07;74.45;;;40.28;;
46457;SDS011;32155;54.076;12.092;2023-04-15T05:24:33;74.43;;;39.45;;
46457;SDS011;32155;54.076;12.092;2023-04-15T05:26:59;61.30;;;36.30;;
46457;SDS011;32155;54.076;12.092;2023-04-15T05:29:25;60.47;;;35.85;;
46457;SDS011;32155;54.076;12.092;2023-04-15T05:31:53;53.15;;;32.85;;
46457;SDS011;32155;54.076;12.092;2023-04-15T05:34:18;47.88;;;29.95;;
46457;SDS011;32155;54.076;12.092;2023-04-15T05:36:44;42.72;;;28.65;;
46457;SDS011;32155;54.076;12.092;2023-04-15T05:39:12;41.88;;;27.58;;
46457;SDS011;32155;54.076;12.092;2023-04-15T05:41:40;42.78;;;26.50;;
46457;SDS011;32155;54.076;12.092;2023-04-15T05:44:05;39.38;;;25.58;;
46457;SDS011;32155;54.076;12.092;2023-04-15T05:46:31;40.60;;;25.65;;
46457;SDS011;32155;54.076;12.092;2023-04-15T05:48:57;42.25;;;27.08;;
46457;SDS011;32155;54.076;12.092;2023-04-15T05:51:22;35.78;;;24.67;;
46457;SDS011;32155;54.076;12.092;2023-04-15T05:53:50;35.63;;;24.08;;
46457;SDS011;32155;54.076;12.092;2023-04-15T05:56:18;36.38;;;23.55;;
46457;SDS011;32155;54.076;12.092;2023-04-15T05:58:44;38.78;;;24.35;;
46457;SDS011;32155;54.076;12.092;2023-04-15T06:01:10;38.53;;;23.60;;
46457;SDS011;32155;54.076;12.092;2023-04-15T06:03:36;36.45;;;22.10;;
46457;SDS011;32155;54.076;12.092;2023-04-15T06:06:02;33.42;;;22.15;;
46457;SDS011;32155;54.076;12.092;2023-04-15T06:08:31;32.58;;;20.67;;
46457;SDS011;32155;54.076;12.092;2023-04-15T06:10:57;28.60;;;19.83;;
46457;SDS011;32155;54.076;12.092;2023-04-15T06:13:23;33.45;;;20.13;;
46457;SDS011;32155;54.076;12.092;2023-04-15T06:15:48;27.48;;;18.80;;
46457;SDS011;32155;54.076;12.092;2023-04-15T06:18:14;28.15;;;20.15;;
46457;SDS011;32155;54.076;12.092;2023-04-15T06:20:42;27.02;;;19.80;;
46457;SDS011;32155;54.076;12.092;2023-04-15T06:23:13;31.48;;;19.20;;
46457;SDS011;32155;54.076;12.092;2023-04-15T06:25:39;28.85;;;19.10;;
46457;SDS011;32155;54.076;12.092;2023-04-15T06:28:07;28.55;;;19.75;;
46457;SDS011;32155;54.076;12.092;2023-04-15T06:30:33;30.60;;;19.08;;
46457;SDS011;32155;54.076;12.092;2023-04-15T06:33:00;25.83;;;17.25;;
46457;SDS011;32155;54.076;12.092;2023-04-15T06:35:27;26.08;;;18.33;;
46457;SDS011;32155;54.076;12.092;2023-04-15T06:37:52;26.90;;;18.00;;
46457;SDS011;32155;54.076;12.092;2023-04-15T06:40:18;27.13;;;17.73;;
46457;SDS011;32155;54.076;12.092;2023-04-15T06:42:44;21.95;;;15.23;;
46457;SDS011;32155;54.076;12.092;2023-04-15T06:45:10;19.92;;;15.38;;
46457;SDS011;32155;54.076;12.092;2023-04-15T06:47:36;23.75;;;15.50;;
46457;SDS011;32155;54.076;12.092;2023-04-15T06:50:01;19.98;;;13.80;;
46457;SDS011;32155;54.076;12.092;2023-04-15T06:52:33;18.08;;;13.77;;
46457;SDS011;32155;54.076;12.092;2023-04-15T06:54:59;18.70;;;13.07;;
46457;SDS011;32155;54.076;12.092;2023-04-15T06:57:28;19.85;;;12.98;;
46457;SDS011;32155;54.076;12.092;2023-04-15T06:59:53;16.50;;;11.82;;
46457;SDS011;32155;54.076;12.092;2023-04-15T07:02:21;18.95;;;12.43;;
46457;SDS011;32155;54.076;12.092;2023-04-15T07:04:47;19.52;;;12.30;;
46457;SDS011;32155;54.076;12.092;2023-04-15T07:07:13;16.13;;;11.43;;
46457;SDS011;32155;54.076;12.092;2023-04-15T07:09:39;17.73;;;11.35;;
46457;SDS011;32155;54.076;12.092;2023-04-15T07:12:05;14.80;;;11.07;;
46457;SDS011;32155;54.076;12.092;2023-04-15T07:14:33;14.45;;;11.50;;
46457;SDS011;32155;54.076;12.092;2023-04-15T07:16:59;16.52;;;11.73;;
46457;SDS011;32155;54.076;12.092;2023-04-15T07:19:25;15.27;;;11.75;;
46457;SDS011;32155;54.076;12.092;2023-04-15T07:21:51;17.58;;;11.32;;
46457;SDS011;32155;54.076;12.092;2023-04-15T07:24:18;15.55;;;10.65;;
46457;SDS011;32155;54.076;12.092;2023-04-15T07:26:56;17.02;;;10.57;;
46457;SDS011;32155;54.076;12.092;2023-04-15T07:29:22;15.90;;;11.07;;
46457;SDS011;32155;54.076;12.092;2023-04-15T07:31:51;22.77;;;14.50;;
46457;SDS011;32155;54.076;12.092;2023-04-15T07:34:22;12.63;;;10.02;;
46457;SDS011;32155;54.076;12.092;2023-04-15T07:36:48;14.95;;;9.30;;
46457;SDS011;32155;54.076;12.092;2023-04-15T07:39:15;12.57;;;9.45;;
46457;SDS011;32155;54.076;12.092;2023-04-15T07:41:41;12.05;;;9.75;;
46457;SDS011;32155;54.076;12.092;2023-04-15T07:44:10;13.13;;;9.50;;
46457;SDS011;32155;54.076;12.092;2023-04-15T07:46:41;12.50;;;9.82;;
46457;SDS011;32155;54.076;12.092;2023-04-15T07:49:06;11.10;;;8.80;;
46457;SDS011;32155;54.076;12.092;2023-04-15T07:51:36;12.90;;;8.98;;
46457;SDS011;32155;54.076;12.092;2023-04-15T07:54:02;10.82;;;9.23;;
46457;SDS011;32155;54.076;12.092;2023-04-15T07:56:28;14.52;;;9.60;;
46457;SDS011;32155;54.076;12.092;2023-04-15T07:58:54;12.60;;;9.10;;
46457;SDS011;32155;54.076;12.092;2023-04-15T08:01:20;15.23;;;9.45;;
46457;SDS011;32155;54.076;12.092;2023-04-15T08:03:47;11.63;;;8.40;;
46457;SDS011;32155;54.076;12.092;2023-04-15T08:06:15;13.07;;;8.98;;
46457;SDS011;32155;54.076;12.092;2023-04-15T08:08:41;11.48;;;9.07;;
46457;SDS011;32155;54.076;12.092;2023-04-15T08:11:07;15.00;;;8.70;;
46457;SDS011;32155;54.076;12.092;2023-04-15T08:13:35;13.20;;;9.25;;
46457;SDS011;32155;54.076;12.092;2023-04-15T08:16:15;9.93;;;8.82;;
46457;SDS011;32155;54.076;12.092;2023-04-15T08:18:43;17.77;;;8.93;;
46457;SDS011;32155;54.076;12.092;2023-04-15T08:21:10;12.35;;;9.55;;
46457;SDS011;32155;54.076;12.092;2023-04-15T08:23:35;15.05;;;9.15;;
46457;SDS011;32155;54.076;12.092;2023-04-15T08:26:02;10.65;;;8.50;;
46457;SDS011;32155;54.076;12.092;2023-04-15T08:28:28;15.75;;;10.27;;
46457;SDS011;32155;54.076;12.092;2023-04-15T08:30:56;12.65;;;10.02;;
46457;SDS011;32155;54.076;12.092;2023-04-15T08:33:22;16.38;;;10.07;;
46457;SDS011;32155;54.076;12.092;2023-04-15T08:35:48;13.38;;;9.48;;
46457;SDS011;32155;54.076;12.092;2023-04-15T08:38:16;13.40;;;10.35;;
46457;SDS011;32155;54.076;12.092;2023-04-15T08:40:42;16.65;;;10.48;;
46457;SDS011;32155;54.076;12.092;2023-04-15T08:43:22;12.77;;;10.98;;
46457;SDS011;32155;54.076;12.092;2023-04-15T08:45:52;14.68;;;11.23;;
46457;SDS011;32155;54.076;12.092;2023-04-15T08:48:19;16.98;;;10.80;;
46457;SDS011;32155;54.076;12.092;2023-04-15T08:50:45;14.07;;;10.60;;
46457;SDS011;32155;54.076;12.092;2023-04-15T08:53:12;13.60;;;10.60;;
46457;SDS011;32155;54.076;12.092;2023-04-15T08:55:42;16.17;;;10.50;;
46457;SDS011;32155;54.076;12.092;2023-04-15T08:58:10;14.55;;;10.75;;
46457;SDS011;32155;54.076;12.092;2023-04-15T09:00:36;14.13;;;9.68;;
46457;SDS011;32155;54.076;12.092;2023-04-15T09:03:06;13.43;;;10.18;;
46457;SDS011;32155;54.076;12.092;2023-04-15T09:05:32;14.48;;;10.70;;
46457;SDS011;32155;54.076;12.092;2023-04-15T09:08:02;13.85;;;9.55;;
46457;SDS011;32155;54.076;12.092;2023-04-15T09:10:29;13.90;;;9.90;;
46457;SDS011;32155;54.076;12.092;2023-04-15T09:12:55;11.73;;;9.45;;
46457;SDS011;32155;54.076;12.092;2023-04-15T09:15:23;12.98;;;9.38;;
46457;SDS011;32155;54.076;12.092;2023-04-15T09:17:51;12.27;;;9.65;;
46457;SDS011;32155;54.076;12.092;2023-04-15T09:20:17;12.77;;;9.48;;
46457;SDS011;32155;54.076;12.092;2023-04-15T09:22:44;15.10;;;9.15;;
46457;SDS011;32155;54.076;12.092;2023-04-15T09:27:49;14.18;;;9.50;;
46457;SDS011;32155;54.076;12.092;2023-04-15T09:30:22;12.60;;;9.23;;
46457;SDS011;32155;54.076;12.092;2023-04-15T09:32:52;13.43;;;9.60;;
46457;SDS011;32155;54.076;12.092;2023-04-15T09:35:21;16.77;;;10.18;;
46457;SDS011;32155;54.076;12.092;2023-04-15T09:37:48;12.75;;;9.68;;
46457;SDS011;32155;54.076;12.092;2023-04-15T09:40:29;13.55;;;10.15;;
46457;SDS011;32155;54.076;12.092;2023-04-15T09:43:00;15.60;;;10.93;;
46457;SDS011;32155;54.076;12.092;2023-04-15T09:45:29;22.33;;;10.05;;
46457;SDS011;32155;54.076;12.092;2023-04-15T09:47:58;14.93;;;11.00;;
46457;SDS011;32155;54.076;12.092;2023-04-15T09:50:41;16.15;;;11.82;;
46457;SDS011;32155;54.076;12.092;2023-04-15T09:53:08;16.33;;;10.68;;
46457;SDS011;32155;54.076;12.092;2023-04-15T09:55:36;16.52;;;11.18;;
46457;SDS011;32155;54.076;12.092;2023-04-15T09:58:07;15.10;;;11.40;;
46457;SDS011;32155;54.076;12.092;2023-04-15T10:00:35;15.73;;;11.80;;
46457;SDS011;32155;54.076;12.092;2023-04-15T10:03:03;17.60;;;11.52;;
46457;SDS011;32155;54.076;12.092;2023-04-15T10:05:30;19.98;;;11.52;;
46457;SDS011;32155;54.076;12.092;2023-04-15T10:07:57;17.02;;;10.32;;
46457;SDS011;32155;54.076;12.092;2023-04-15T10:10:22;16.58;;;11.93;;
46457;SDS011;32155;54.076;12.092;2023-04-15T10:12:48;17.70;;;12.30;;
46457;SDS011;32155;54.076;12.092;2023-04-15T10:15:17;18.30;;;12.55;;
46457;SDS011;32155;54.076;12.092;2023-04-15T10:17:43;21.35;;;14.43;;
46457;SDS011;32155;54.076;12.092;2023-04-15T10:20:10;19.58;;;12.20;;
46457;SDS011;32155;54.076;12.092;2023-04-15T10:22:41;15.35;;;12.77;;
46457;SDS011;32155;54.076;12.092;2023-04-15T10:25:07;14.45;;;11.13;;
46457;SDS011;32155;54.076;12.092;2023-04-15T10:27:37;15.40;;;11.75;;
46457;SDS011;32155;54.076;12.092;2023-04-15T10:30:06;16.83;;;11.32;;
46457;SDS011;32155;54.076;12.092;2023-04-15T10:32:33;15.05;;;11.48;;
46457;SDS011;32155;54.076;12.092;2023-04-15T10:34:59;19.58;;;12.57;;
46457;SDS011;32155;54.076;12.092;2023-04-15T10:37:35;14.20;;;11.05;;
46457;SDS011;32155;54.076;12.092;2023-04-15T10:42:51;18.05;;;12.90;;
46457;SDS011;32155;54.076;12.092;2023-04-15T10:45:20;18.05;;;13.93;;
46457;SDS011;32155;54.076;12.092;2023-04-15T10:47:50;23.38;;;13.80;;
46457;SDS011;32155;54.076;12.092;2023-04-15T10:50:18;18.95;;;13.68;;
46457;SDS011;32155;54.076;12.092;2023-04-15T10:52:49;19.52;;;14.82;;
46457;SDS011;32155;54.076;12.092;2023-04-15T10:55:19;21.60;;;14.70;;
46457;SDS011;32155;54.076;12.092;2023-04-15T10:57:50;22.73;;;15.38;;
46457;SDS011;32155;54.076;12.092;2023-04-15T11:00:21;17.92;;;13.00;;
46457;SDS011;32155;54.076;12.092;2023-04-15T11:03:33;19.25;;;13.70;;
46457;SDS011;32155;54.076;12.092;2023-04-15T11:05:58;18.85;;;14.88;;
46457;SDS011;32155;54.076;12.092;2023-04-15T11:08:52;23.25;;;15.23;;
46457;SDS011;32155;54.076;12.092;2023-04-15T11:11:18;18.33;;;15.20;;
46457;SDS011;32155;54.076;12.092;2023-04-15T11:13:48;22.73;;;14.35;;
46457;SDS011;32155;54.076;12.092;2023-04-15T11:16:15;18.13;;;14.48;;
46457;SDS011;32155;54.076;12.092;2023-04-15T11:18:52;15.90;;;13.13;;
46457;SDS011;32155;54.076;12.092;2023-04-15T11:21:23;23.92;;;17.38;;
46457;SDS011;32155;54.076;12.092;2023-04-15T11:23:50;16.60;;;13.05;;
46457;SDS011;32155;54.076;12.092;2023-04-15T11:26:15;16.67;;;13.00;;
46457;SDS011;32155;54.076;12.092;2023-04-15T11:28:44;18.67;;;13.63;;
46457;SDS011;32155;54.076;12.092;2023-04-15T11:31:14;17.00;;;13.85;;
46457;SDS011;32155;54.076;12.092;2023-04-15T11:33:57;18.98;;;13.68;;
46457;SDS011;32155;54.076;12.092;2023-04-15T11:36:26;17.38;;;14.07;;
46457;SDS011;32155;54.076;12.092;2023-04-15T11:38:52;19.85;;;14.63;;
46457;SDS011;32155;54.076;12.092;2023-04-15T11:41:24;19.25;;;15.07;;
46457;SDS011;32155;54.076;12.092;2023-04-15T11:43:50;19.38;;;14.68;;
46457;SDS011;32155;54.076;12.092;2023-04-15T11:46:16;18.70;;;15.13;;
46457;SDS011;32155;54.076;12.092;2023-04-15T11:48:43;22.85;;;16.25;;
46457;SDS011;32155;54.076;12.092;2023-04-15T11:51:10;20.75;;;15.75;;
46457;SDS011;32155;54.076;12.092;2023-04-15T11:56:15;18.45;;;15.10;;
46457;SDS011;32155;54.076;12.092;2023-04-15T11:58:42;22.02;;;15.02;;
46457;SDS011;32155;54.076;12.092;2023-04-15T12:01:10;18.80;;;14.88;;
46457;SDS011;32155;54.076;12.092;2023-04-15T12:03:37;18.48;;;15.45;;
46457;SDS011;32155;54.076;12.092;2023-04-15T12:06:08;22.15;;;16.08;;
46457;SDS011;32155;54.076;12.092;2023-04-15T12:11:19;20.58;;;14.48;;
46457;SDS011;32155;54.076;12.092;2023-04-15T12:13:54;18.90;;;13.40;;
46457;SDS011;32155;54.076;12.092;2023-04-15T12:16:23;19.92;;;14.13;;
46457;SDS011;32155;54.076;12.092;2023-04-15T12:18:55;18.00;;;13.07;;
46457;SDS011;32155;54.076;12.092;2023-04-15T12:21:23;15.10;;;12.20;;
46457;SDS011;32155;54.076;12.092;2023-04-15T12:23:54;19.35;;;12.40;;
46457;SDS011;32155;54.076;12.092;2023-04-15T12:26:27;16.88;;;11.88;;
46457;SDS011;32155;54.076;12.092;2023-04-15T12:31:35;14.40;;;11.10;;
46457;SDS011;32155;54.076;12.092;2023-04-15T12:34:01;23.25;;;11.45;;
46457;SDS011;32155;54.076;12.092;2023-04-15T12:36:29;14.90;;;11.20;;
46457;SDS011;32155;54.076;12.092;2023-04-15T12:39:00;15.23;;;12.30;;
46457;SDS011;32155;54.076;12.092;2023-04-15T12:41:27;12.77;;;11.13;;
46457;SDS011;32155;54.076;12.092;2023-04-15T12:43:53;15.27;;;12.50;;
46457;SDS011;32155;54.076;12.092;2023-04-15T12:46:18;13.27;;;11.82;;
46457;SDS011;32155;54.076;12.092;2023-04-15T12:48:44;14.82;;;12.23;;
46457;SDS011;32155;54.076;12.092;2023-04-15T12:51:10;20.42;;;13.25;;
46457;SDS011;32155;54.076;12.092;2023-04-15T12:53:36;19.05;;;13.32;;
46457;SDS011;32155;54.076;12.092;2023-04-15T12:56:01;18.85;;;13.23;;
46457;SDS011;32155;54.076;12.092;2023-04-15T12:58:31;20.13;;;13.50;;
46457;SDS011;32155;54.076;12.092;2023-04-15T13:00:57;18.38;;;14.50;;
46457;SDS011;32155;54.076;12.092;2023-04-15T13:03:23;17.35;;;14.07;;
46457;SDS011;32155;54.076;12.092;2023-04-15T13:05:48;19.42;;;15.25;;
46457;SDS011;32155;54.076;12.092;2023-04-15T13:08:16;20.40;;;15.18;;
46457;SDS011;32155;54.076;12.092;2023-04-15T13:10:42;21.23;;;14.82;;
46457;SDS011;32155;54.076;12.092;2023-04-15T13:13:08;20.70;;;14.95;;
46457;SDS011;32155;54.076;12.092;2023-04-15T13:15:34;18.58;;;14.75;;
46457;SDS011;32155;54.076;12.092;2023-04-15T13:20:25;18.67;;;14.25;;
46457;SDS011;32155;54.076;12.092;2023-04-15T13:22:55;17.65;;;13.68;;
46457;SDS011;32155;54.076;12.092;2023-04-15T13:25:20;22.15;;;15.18;;
46457;SDS011;32155;54.076;12.092;2023-04-15T13:27:46;18.90;;;14.20;;
46457;SDS011;32155;54.076;12.092;2023-04-15T13:32:37;20.27;;;15.18;;
46457;SDS011;32155;54.076;12.092;2023-04-15T13:35:03;21.95;;;15.27;;
46457;SDS011;32155;54.076;12.092;2023-04-15T13:37:31;22.40;;;15.35;;
46457;SDS011;32155;54.076;12.092;2023-04-15T13:39:57;25.05;;;14.95;;
46457;SDS011;32155;54.076;12.092;2023-04-15T13:42:23;21.70;;;14.52;;
46457;SDS011;32155;54.076;12.092;2023-04-15T13:44:51;23.95;;;15.50;;
46457;SDS011;32155;54.076;12.092;2023-04-15T13:47:30;21.83;;;15.07;;
46457;SDS011;32155;54.076;12.092;2023-04-15T13:50:11;21.85;;;15.82;;
46457;SDS011;32155;54.076;12.092;2023-04-15T13:52:37;20.50;;;15.75;;
46457;SDS011;32155;54.076;12.092;2023-04-15T13:55:05;25.30;;;15.63;;
46457;SDS011;32155;54.076;12.092;2023-04-15T13:57:38;19.50;;;16.00;;
46457;SDS011;32155;54.076;12.092;2023-04-15T14:00:04;22.45;;;16.30;;
46457;SDS011;32155;54.076;12.092;2023-04-15T14:02:31;21.85;;;16.08;;
46457;SDS011;32155;54.076;12.092;2023-04-15T14:05:00;20.48;;;15.88;;
46457;SDS011;32155;54.076;12.092;2023-04-15T14:07:29;28.05;;;19.92;;
46457;SDS011;32155;54.076;12.092;2023-04-15T14:09:58;22.92;;;16.73;;
46457;SDS011;32155;54.076;12.092;2023-04-15T14:12:27;22.45;;;17.15;;
46457;SDS011;32155;54.076;12.092;2023-04-15T14:14:53;27.08;;;17.50;;
46457;SDS011;32155;54.076;12.092;2023-04-15T14:17:19;27.75;;;17.10;;
46457;SDS011;32155;54.076;12.092;2023-04-15T23:56:58;49.00;;;24.40;;
46457;SDS011;32155;54.076;12.092;2023-04-15T23:59:24;36.47;;;21.52;;
